Nearby METAR Reports

 

KSJC - San Jose, California, USA
Distance from station: NE 14km
Updated: 26/09/2020 19:53
Mostly cloudy
Mostly cloudy
 Wind from NNW
Wind: NNW 24 km/h
Temperature: 28°C
Heat Index: 27°C
Dew Point: 13°C
Humidity: 40%
Barometer: 1014.6 hPa
Clouds: Mostly cloudy
Visibility: 16 km
Cloud details: Partly cloudy 914 m
Partly cloudy 2286 m
Mostly cloudy 3048 m
2020/09/26 22:53 KSJC 262253Z 33013KT 10SM SCT030 SCT075 BKN100 28/13 A2996 RMK AO2 SLP143 HZ SCT030 T02830128
KNUQ - Moffett Nas/Mtn, California, USA
Distance from station: N 14km
Updated: 26/09/2020 10:55
NOT Current
Clear
Clear
 Wind from calm
Wind: Calm
Temperature: 15°C
Dew Point: 12°C
Humidity: 82%
Barometer: 1017.3 hPa
Clouds: Clear
Visibility: 16 km
2020/09/26 13:55 KNUQ 261355Z AUTO 00000KT 10SM CLR 15/12 A3004 RMK AO2
 
KPAO - Palo Alto, California, USA
Distance from station: NNW 23km
Updated: 26/09/2020 20:47
Clear
Clear
 Wind from NW
Wind: NW 20 km/h
Temperature: 28°C
Heat Index: 27°C
Dew Point: 13°C
Humidity: 40%
Barometer: 1014.2 hPa
Clouds: Clear
Visibility: 16 km
2020/09/26 23:47 KPAO 262347Z 31011KT 10SM SKC 28/13 A2995
KRHV - San Jose/Reid, California, USA
Distance from station: ENE 19km
Updated: 26/09/2020 19:50
Partly cloudy
Partly cloudy
 Wind from WNW
Wind: WNW 19 km/h
Temperature: 29°C
Dew Point: 13°C
Humidity: 37%
Barometer: 1014.6 hPa
Clouds: Partly cloudy
Visibility: 16 km
Cloud details: Partly cloudy 2134 m
2020/09/26 22:50 KRHV 262250Z 30010KT 10SM SCT070 29/13 A2996
 
KOAK - Oakland, California, USA
Distance from station: NNW 50km
Updated: 26/09/2020 19:53
Mostly cloudy
Mostly cloudy
 Wind from W
Wind: W 24 km/h
Temperature: 26°C
Dew Point: 16°C
Humidity: 54%
Barometer: 1014.9 hPa
Clouds: Mostly cloudy
Visibility: 16 km
Cloud details: Mostly cloudy 6096 m
2020/09/26 22:53 KOAK 262253Z 26013KT 10SM BKN200 26/16 A2997 RMK AO2 SLP148 T02560156
KSQL - San Carlos Airpo, California, USA
Distance from station: NW 34km
Updated: 26/09/2020 20:47
Clear
Clear
 Wind from W
Wind: W 26 km/h, Gust: 33 km/h
Temperature: 27°C
Dew Point: 12°C
Humidity: 39%
Barometer: 1014.6 hPa
Clouds: Clear
Visibility: 16 km
2020/09/26 23:47 KSQL 262347Z 28014G18KT 10SM SKC 27/12 A2996
 
KSFO - San Francisco, California, USA
Distance from station: NW 49km
Updated: 26/09/2020 19:56
Mostly cloudy
Mostly cloudy
 Wind from W
Wind: W 33 km/h
Temperature: 23°C
Dew Point: 13°C
Humidity: 53%
Barometer: 1015.2 hPa
Clouds: Mostly cloudy
Visibility: 16 km
Cloud details: Mostly cloudy 6096 m
2020/09/26 22:56 KSFO 262256Z 28018KT 10SM BKN200 23/13 A2998 RMK AO2 PK WND 28027/2227 SLP151 T02280133
KE16 - San Martin, California, USA
Distance from station: ESE 43km
Updated: 26/09/2020 20:30
Clear
Clear
 Wind from NW
Wind: NW 22 km/h, Gust: 41 km/h
Temperature: 29°C
Dew Point: 12°C
Humidity: 35%
Barometer: 1013.5 hPa
Clouds: Clear
Visibility: 16 km
2020/09/26 23:30 KE16 262330Z AUTO 32012G22KT 10SM CLR 29/12 A2993 RMK AO2 PWINO PNO
 
KWVI - Watsonville, California, USA
Distance from station: SSE 44km
Updated: 26/09/2020 19:53
Clear
Clear
 Wind from SSW
Wind: SSW 9 km/h
Temperature: 26°C
Dew Point: 15°C
Humidity: 51%
Barometer: 1014.2 hPa
Clouds: Clear
Visibility: 16 km
2020/09/26 22:53 KWVI 262253Z AUTO 20005KT 10SM CLR 26/15 A2995 RMK AO2 SLP141 T02560150
KHAF - Half Moon Bay, California, USA
Distance from station: WNW 50km
Updated: 26/09/2020 20:35
Clear
Clear
 Wind from NNW
Wind: NNW 30 km/h, Gust: 44 km/h
Temperature: 20°C
Dew Point: 14°C
Humidity: 69%
Barometer: 1015.9 hPa
Clouds: Clear
Visibility: 13 km
2020/09/26 23:35 KHAF 262335Z AUTO 34016G24KT 8SM CLR 20/14 A3000 RMK AO2
 
KHWD - Hayward, California, USA
Distance from station: N 44km
Updated: 26/09/2020 19:54
Clear
Clear
 Wind from W
Wind: W 28 km/h
Temperature: 26°C
Dew Point: 14°C
Humidity: 48%
Barometer: 1014.9 hPa
Clouds: Clear
Visibility: 16 km
2020/09/26 22:54 KHWD 262254Z 28015KT 10SM CLR 26/14 A2997 RMK AO2 SLP157 T02560144
KLVK - Livermore, California, USA
Distance from station: NNE 51km
Updated: 26/09/2020 19:53
Smoke, Clear
Smoke, Clear
 Wind from W
Wind: W 17 km/h
Temperature: 31°C
Dew Point: 13°C
Humidity: 33%
Barometer: 1013.9 hPa
Summary: Smoke
Clouds: Clear
Visibility: 16 km
2020/09/26 22:53 KLVK 262253Z 28009KT 10SM FU CLR 31/13 A2994 RMK AO2 SLP134 T03110128